createdAt,value
2023-02-19T00:01:49.434Z,3.53
2023-02-19T00:04:21.723Z,4.47
2023-02-19T00:06:48.883Z,3.95
2023-02-19T00:09:17.027Z,3.92
2023-02-19T00:11:44.017Z,3.40
2023-02-19T00:14:14.260Z,3.80
2023-02-19T00:16:40.662Z,3.88
2023-02-19T00:19:14.008Z,3.47
2023-02-19T00:21:40.354Z,3.08
2023-02-19T00:24:07.846Z,3.55
2023-02-19T00:26:34.480Z,4.22
2023-02-19T00:29:01.756Z,3.50
2023-02-19T00:31:32.996Z,4.47
2023-02-19T00:34:05.062Z,4.22
2023-02-19T00:36:32.987Z,3.38
2023-02-19T00:38:59.357Z,3.85
2023-02-19T00:41:25.808Z,4.15
2023-02-19T00:44:04.137Z,4.13
2023-02-19T00:46:39.414Z,4.18
2023-02-19T00:49:08.282Z,4.15
2023-02-19T00:51:37.303Z,3.78
2023-02-19T00:54:05.403Z,3.75
2023-02-19T00:56:32.039Z,3.90
2023-02-19T00:58:58.440Z,4.88
2023-02-19T01:01:25.010Z,3.67
2023-02-19T01:03:51.945Z,3.95
2023-02-19T01:06:20.073Z,4.07
2023-02-19T01:08:46.462Z,4.20
2023-02-19T01:11:13.633Z,3.40
2023-02-19T01:13:40.547Z,3.83
2023-02-19T01:16:12.788Z,3.33
2023-02-19T01:18:39.568Z,4.55
2023-02-19T01:21:07.885Z,3.25
2023-02-19T01:23:35.622Z,3.97
2023-02-19T01:26:12.136Z,3.90
2023-02-19T01:28:38.559Z,4.35
2023-02-19T01:31:07.456Z,3.80
2023-02-19T01:33:34.681Z,3.22
2023-02-19T01:36:06.609Z,4.22
2023-02-19T01:38:33.216Z,4.18
2023-02-19T01:41:02.628Z,4.82
2023-02-19T01:43:29.340Z,4.00
2023-02-19T01:45:55.738Z,4.22
2023-02-19T01:48:37.614Z,3.90
2023-02-19T01:51:12.638Z,4.25
2023-02-19T01:53:43.498Z,3.80
2023-02-19T01:56:11.365Z,3.67
2023-02-19T01:58:38.219Z,3.83
2023-02-19T02:01:06.752Z,3.72
2023-02-19T02:03:35.393Z,3.45
2023-02-19T02:06:12.371Z,3.20
2023-02-19T02:08:57.548Z,3.70
2023-02-19T02:11:24.391Z,3.63
2023-02-19T02:13:51.939Z,3.13
2023-02-19T02:16:33.597Z,3.15
2023-02-19T02:19:19.336Z,2.88
2023-02-19T02:22:26.580Z,3.40
2023-02-19T02:25:26.043Z,3.67
2023-02-19T02:28:02.522Z,2.88
2023-02-19T02:30:39.525Z,3.47
2023-02-19T02:33:20.928Z,3.47
2023-02-19T02:35:52.847Z,2.55
2023-02-19T02:38:24.165Z,2.80
2023-02-19T02:40:52.653Z,2.92
2023-02-19T02:43:19.101Z,2.65
2023-02-19T02:45:45.544Z,3.40
2023-02-19T02:48:36.669Z,2.72
2023-02-19T02:51:25.084Z,2.88
2023-02-19T02:54:28.395Z,2.65
2023-02-19T02:56:57.362Z,3.15
2023-02-19T02:59:30.944Z,3.33
2023-02-19T03:02:11.650Z,3.08
2023-02-19T03:05:06.033Z,2.95
2023-02-19T03:07:42.352Z,3.20
2023-02-19T03:10:14.347Z,3.35
2023-02-19T03:13:01.531Z,2.60
2023-02-19T03:15:53.085Z,2.90
2023-02-19T03:18:40.703Z,2.60
2023-02-19T03:21:07.489Z,2.53
2023-02-19T03:23:54.815Z,2.42
2023-02-19T03:26:21.735Z,2.22
2023-02-19T03:29:11.807Z,2.33
2023-02-19T03:31:43.389Z,2.95
2023-02-19T03:34:14.285Z,2.40
2023-02-19T03:36:45.724Z,2.78
2023-02-19T03:39:17.191Z,2.75
2023-02-19T03:42:00.360Z,2.28
2023-02-19T03:44:50.669Z,2.13
2023-02-19T03:47:28.532Z,2.10
2023-02-19T03:50:02.836Z,2.05
2023-02-19T03:52:55.266Z,1.88
2023-02-19T03:55:50.254Z,2.25
2023-02-19T03:58:20.224Z,2.10
2023-02-19T04:00:58.116Z,1.60
2023-02-19T04:03:41.408Z,1.73
2023-02-19T04:06:13.973Z,1.65
2023-02-19T04:08:46.126Z,1.60
2023-02-19T04:11:16.792Z,1.90
2023-02-19T04:13:50.169Z,1.70
2023-02-19T04:16:21.695Z,1.55
2023-02-19T04:18:52.671Z,1.60
2023-02-19T04:21:20.993Z,1.60
2023-02-19T04:23:48.083Z,1.52
2023-02-19T04:26:16.412Z,1.35
2023-02-19T04:28:44.053Z,1.13
2023-02-19T04:31:11.404Z,1.52
2023-02-19T04:33:38.332Z,0.85
2023-02-19T04:36:05.125Z,0.90
2023-02-19T04:38:31.488Z,1.23
2023-02-19T04:40:57.881Z,1.33
2023-02-19T04:43:24.260Z,0.95
2023-02-19T04:45:50.676Z,1.02
2023-02-19T04:48:17.131Z,0.95
2023-02-19T04:50:43.485Z,1.00
2023-02-19T04:53:09.840Z,1.05
2023-02-19T04:55:37.781Z,0.90
2023-02-19T04:58:04.463Z,0.60
2023-02-19T05:00:33.806Z,0.70
2023-02-19T05:03:00.930Z,0.75
2023-02-19T05:05:27.679Z,0.63
2023-02-19T05:07:54.265Z,0.63
2023-02-19T05:10:20.665Z,0.50
2023-02-19T05:12:47.044Z,0.50
2023-02-19T05:15:13.464Z,0.40
2023-02-19T05:17:39.953Z,0.77
2023-02-19T05:20:06.777Z,0.65
2023-02-19T05:22:33.144Z,0.77
2023-02-19T05:24:59.516Z,0.95
2023-02-19T05:27:26.002Z,0.80
2023-02-19T05:29:52.335Z,0.70
2023-02-19T05:32:18.719Z,0.90
2023-02-19T05:34:45.113Z,0.80
2023-02-19T05:37:12.518Z,0.93
2023-02-19T05:39:38.889Z,1.23
2023-02-19T05:42:05.278Z,0.90
2023-02-19T05:44:31.612Z,0.80
2023-02-19T05:46:58.223Z,0.77
2023-02-19T05:49:24.628Z,0.80
2023-02-19T05:51:51.362Z,0.90
2023-02-19T05:54:17.900Z,1.05
2023-02-19T05:56:44.299Z,1.00
2023-02-19T05:59:22.063Z,0.77
2023-02-19T06:01:50.514Z,0.80
2023-02-19T06:04:19.038Z,0.93
2023-02-19T06:06:46.311Z,1.02
2023-02-19T06:09:12.674Z,1.30
2023-02-19T06:11:39.549Z,1.00
2023-02-19T06:14:07.123Z,1.15
2023-02-19T06:16:34.322Z,0.90
2023-02-19T06:19:04.374Z,0.65
2023-02-19T06:21:30.792Z,0.80
2023-02-19T06:23:57.161Z,0.95
2023-02-19T06:26:24.961Z,0.80
2023-02-19T06:28:52.994Z,0.60
2023-02-19T06:31:21.088Z,0.98
2023-02-19T06:33:50.483Z,1.13
2023-02-19T06:36:19.709Z,0.70
2023-02-19T06:38:46.166Z,1.02
2023-02-19T06:41:13.753Z,1.50
2023-02-19T06:43:40.410Z,1.27
2023-02-19T06:46:07.818Z,0.98
2023-02-19T06:48:34.835Z,1.00
2023-02-19T06:51:01.667Z,0.75
2023-02-19T06:53:28.122Z,1.00
2023-02-19T06:56:07.734Z,0.95
2023-02-19T06:58:34.225Z,0.85
2023-02-19T07:01:01.753Z,1.02
2023-02-19T07:03:28.129Z,1.02
2023-02-19T07:05:54.547Z,1.15
2023-02-19T07:08:21.354Z,3.15
2023-02-19T07:10:58.115Z,1.20
2023-02-19T07:13:26.697Z,0.80
2023-02-19T07:15:59.703Z,0.90
2023-02-19T07:20:53.914Z,1.00
2023-02-19T07:23:20.542Z,0.98
2023-02-19T07:25:46.985Z,1.85
2023-02-19T07:28:13.360Z,0.93
2023-02-19T07:30:39.718Z,1.05
2023-02-19T07:33:06.801Z,0.85
2023-02-19T07:35:35.465Z,1.23
2023-02-19T07:38:01.871Z,1.05
2023-02-19T07:40:28.299Z,0.88
2023-02-19T07:42:54.711Z,0.85
2023-02-19T07:45:21.033Z,0.95
2023-02-19T07:47:47.395Z,0.80
2023-02-19T07:50:14.114Z,1.15
2023-02-19T07:52:40.475Z,1.52
2023-02-19T07:55:07.018Z,1.27
2023-02-19T07:57:33.373Z,1.50
2023-02-19T08:00:00.146Z,1.00
2023-02-19T08:02:45.287Z,1.38
2023-02-19T08:05:11.686Z,1.80
2023-02-19T08:07:38.022Z,1.52
2023-02-19T08:10:24.105Z,1.70
2023-02-19T08:13:19.463Z,1.10
2023-02-19T08:15:46.731Z,1.63
2023-02-19T08:18:14.983Z,0.85
2023-02-19T08:20:41.478Z,1.30
2023-02-19T08:23:08.309Z,1.00
2023-02-19T08:25:35.122Z,2.13
2023-02-19T08:28:01.661Z,1.27
2023-02-19T08:30:29.567Z,1.30
2023-02-19T08:33:00.170Z,1.17
2023-02-19T08:35:28.242Z,1.75
2023-02-19T08:37:58.718Z,1.23
2023-02-19T08:40:26.394Z,1.50
2023-02-19T08:42:53.018Z,1.00
2023-02-19T08:45:19.386Z,1.92
2023-02-19T08:47:46.146Z,1.83
2023-02-19T08:50:12.800Z,2.20
2023-02-19T08:52:39.141Z,1.05
2023-02-19T08:55:06.225Z,1.50
2023-02-19T08:57:35.605Z,1.33
2023-02-19T09:00:01.973Z,1.98
2023-02-19T09:02:29.096Z,1.13
2023-02-19T09:04:55.488Z,1.33
2023-02-19T09:07:22.859Z,1.23
2023-02-19T09:09:49.284Z,1.38
2023-02-19T09:12:15.734Z,1.65
2023-02-19T09:14:42.254Z,2.40
2023-02-19T09:17:09.199Z,1.50
2023-02-19T09:19:35.700Z,1.88
2023-02-19T09:22:03.533Z,1.60
2023-02-19T09:24:30.241Z,1.40
2023-02-19T09:26:56.693Z,2.20
2023-02-19T09:29:27.505Z,1.33
2023-02-19T09:31:58.350Z,1.77
2023-02-19T09:34:26.070Z,1.73
2023-02-19T09:36:52.970Z,1.83
2023-02-19T09:39:20.006Z,2.70
2023-02-19T09:41:51.052Z,1.63
2023-02-19T09:44:25.377Z,2.30
2023-02-19T09:46:53.532Z,2.55
2023-02-19T09:49:29.261Z,2.15
2023-02-19T09:51:59.807Z,2.00
2023-02-19T09:54:30.437Z,1.73
2023-02-19T09:57:00.044Z,1.80
2023-02-19T09:59:39.833Z,2.20
2023-02-19T10:02:20.674Z,2.38
2023-02-19T10:04:49.146Z,2.28
2023-02-19T10:07:18.800Z,2.40
2023-02-19T10:09:51.447Z,1.70
2023-02-19T10:12:31.859Z,3.03
2023-02-19T10:15:27.621Z,2.15
2023-02-19T10:17:54.328Z,1.73
2023-02-19T10:20:24.639Z,2.13
2023-02-19T10:23:06.434Z,2.20
2023-02-19T10:25:34.429Z,1.98
2023-02-19T10:28:02.048Z,3.05
2023-02-19T10:30:33.194Z,2.15
2023-02-19T10:33:02.987Z,2.17
2023-02-19T10:35:31.054Z,2.83
2023-02-19T10:37:57.856Z,2.67
2023-02-19T10:40:28.808Z,2.13
2023-02-19T10:43:04.481Z,2.10
2023-02-19T10:45:50.346Z,2.47
2023-02-19T10:48:27.291Z,2.22
2023-02-19T10:50:58.057Z,2.35
2023-02-19T10:53:37.879Z,2.13
2023-02-19T10:56:14.123Z,2.88
2023-02-19T10:58:42.436Z,2.70
2023-02-19T11:01:15.736Z,2.65
2023-02-19T11:03:42.815Z,2.80
2023-02-19T11:06:11.420Z,3.05
2023-02-19T11:08:54.006Z,4.18
2023-02-19T11:11:27.189Z,3.03
2023-02-19T11:13:56.445Z,2.50
2023-02-19T11:16:38.770Z,2.50
2023-02-19T11:19:05.298Z,3.63
2023-02-19T11:21:34.631Z,3.45
2023-02-19T11:24:03.704Z,2.85
2023-02-19T11:26:38.099Z,2.80
2023-02-19T11:29:22.381Z,2.58
2023-02-19T11:31:49.323Z,1.73
2023-02-19T11:34:20.873Z,2.47
2023-02-19T11:37:09.664Z,2.83
2023-02-19T11:39:36.758Z,2.17
2023-02-19T11:42:24.057Z,3.75
2023-02-19T11:45:12.702Z,2.67
2023-02-19T11:48:04.133Z,2.67
2023-02-19T11:51:03.145Z,2.78
2023-02-19T11:53:37.105Z,2.00
2023-02-19T11:56:21.601Z,2.70
2023-02-19T11:59:00.798Z,2.38
2023-02-19T12:01:58.153Z,2.88
2023-02-19T12:04:37.849Z,2.67
2023-02-19T12:07:25.757Z,2.70
2023-02-19T12:10:04.916Z,2.42
2023-02-19T12:12:46.088Z,3.15
2023-02-19T12:15:15.425Z,3.15
2023-02-19T12:17:50.783Z,2.65
2023-02-19T12:20:39.185Z,2.35
2023-02-19T12:23:48.604Z,2.20
2023-02-19T12:26:30.113Z,2.55
2023-02-19T12:29:20.139Z,2.20
2023-02-19T12:31:50.903Z,2.50
2023-02-19T12:34:23.428Z,2.65
2023-02-19T12:37:07.958Z,3.70
2023-02-19T12:40:15.407Z,3.13
2023-02-19T12:42:57.090Z,2.45
2023-02-19T12:45:46.896Z,2.75
2023-02-19T12:48:29.423Z,2.78
2023-02-19T12:51:00.896Z,2.60
2023-02-19T12:53:48.998Z,3.45
2023-02-19T12:56:25.646Z,2.97
2023-02-19T12:59:02.103Z,3.10
2023-02-19T13:01:35.062Z,2.78
2023-02-19T13:04:25.833Z,3.50
2023-02-19T13:07:08.981Z,2.78
2023-02-19T13:09:45.180Z,2.97
2023-02-19T13:12:28.992Z,2.15
2023-02-19T13:15:07.428Z,3.08
2023-02-19T13:17:51.266Z,2.15
2023-02-19T13:20:31.132Z,2.03
2023-02-19T13:23:31.908Z,2.25
2023-02-19T13:26:12.898Z,2.40
2023-02-19T13:28:59.988Z,1.88
2023-02-19T13:31:47.868Z,2.10
2023-02-19T13:34:22.685Z,3.03
2023-02-19T13:36:49.479Z,4.00
2023-02-19T13:39:18.852Z,4.13
2023-02-19T13:41:53.260Z,2.83
2023-02-19T13:44:22.007Z,2.95
2023-02-19T13:46:50.554Z,2.63
2023-02-19T13:49:24.308Z,2.70
2023-02-19T13:51:53.012Z,2.75
2023-02-19T13:54:35.915Z,2.72
2023-02-19T13:57:17.640Z,2.80
2023-02-19T13:59:45.307Z,2.75
2023-02-19T14:02:20.748Z,2.90
2023-02-19T14:04:56.850Z,2.75
2023-02-19T14:07:26.308Z,2.70
2023-02-19T14:09:52.930Z,3.60
2023-02-19T14:12:21.630Z,2.83
2023-02-19T14:14:53.071Z,3.13
2023-02-19T14:17:45.644Z,2.53
2023-02-19T14:20:14.986Z,2.63
2023-02-19T14:22:48.622Z,1.95
2023-02-19T14:25:31.398Z,1.90
2023-02-19T14:28:10.040Z,2.15
2023-02-19T14:30:53.563Z,1.85
2023-02-19T14:33:32.698Z,2.10
2023-02-19T14:36:05.922Z,2.03
2023-02-19T14:39:15.740Z,2.97
2023-02-19T14:41:47.213Z,1.90
2023-02-19T14:44:24.892Z,2.25
2023-02-19T14:46:51.198Z,2.28
2023-02-19T14:49:30.040Z,1.67
2023-02-19T14:52:11.607Z,2.92
2023-02-19T14:54:49.203Z,2.38
2023-02-19T14:57:21.839Z,2.63
2023-02-19T14:59:58.506Z,2.20
2023-02-19T15:02:27.112Z,2.55
2023-02-19T15:04:54.482Z,3.22
2023-02-19T15:07:29.024Z,2.50
2023-02-19T15:10:04.828Z,2.40
2023-02-19T15:13:08.139Z,2.50
2023-02-19T15:15:39.976Z,2.50
2023-02-19T15:18:06.883Z,2.65
2023-02-19T15:20:36.139Z,2.17
2023-02-19T15:23:06.291Z,3.13
2023-02-19T15:25:38.615Z,2.63
2023-02-19T15:28:23.439Z,1.80
2023-02-19T15:30:50.978Z,2.20
2023-02-19T15:33:20.282Z,1.90
2023-02-19T15:35:55.656Z,1.33
2023-02-19T15:38:22.599Z,1.80
2023-02-19T15:40:49.759Z,1.88
2023-02-19T15:43:27.863Z,1.63
2023-02-19T15:46:01.041Z,2.45
2023-02-19T15:48:35.357Z,1.50
2023-02-19T15:51:09.180Z,1.77
2023-02-19T15:53:41.540Z,2.28
2023-02-19T15:56:27.938Z,1.55
2023-02-19T15:59:02.687Z,1.67
2023-02-19T16:01:39.313Z,1.73
2023-02-19T16:04:18.193Z,2.50
2023-02-19T16:07:28.349Z,2.22
2023-02-19T16:10:22.358Z,1.98
2023-02-19T16:12:59.877Z,2.85
2023-02-19T16:15:28.745Z,1.40
2023-02-19T16:17:56.758Z,1.30
2023-02-19T16:20:29.290Z,1.30
2023-02-19T16:23:09.297Z,1.65
2023-02-19T16:25:42.227Z,1.50
2023-02-19T16:31:02.341Z,1.20
2023-02-19T16:33:28.737Z,1.58
2023-02-19T16:35:55.241Z,1.45
2023-02-19T16:38:21.660Z,1.58
2023-02-19T16:40:47.956Z,1.55
2023-02-19T16:43:14.325Z,1.52
2023-02-19T16:45:45.021Z,1.88
2023-02-19T16:48:12.303Z,3.45
2023-02-19T16:50:43.907Z,3.10
2023-02-19T16:53:22.190Z,1.88
2023-02-19T16:55:48.712Z,2.17
2023-02-19T16:58:15.133Z,2.00
2023-02-19T17:00:41.590Z,2.80
2023-02-19T17:03:12.235Z,2.78
2023-02-19T17:05:39.608Z,3.38
2023-02-19T17:08:14.430Z,2.60
2023-02-19T17:10:40.803Z,4.07
2023-02-19T17:13:07.155Z,10.82
2023-02-19T17:15:33.534Z,11.27
2023-02-19T17:17:59.917Z,7.88
2023-02-19T17:20:29.995Z,4.90
2023-02-19T17:22:56.528Z,2.88
2023-02-19T17:25:24.049Z,2.47
2023-02-19T17:27:50.632Z,1.52
2023-02-19T17:30:28.991Z,1.52
2023-02-19T17:32:55.457Z,1.65
2023-02-19T17:35:22.099Z,1.60
2023-02-19T17:37:48.590Z,1.55
2023-02-19T17:40:33.253Z,1.25
2023-02-19T17:43:00.401Z,1.20
2023-02-19T17:45:26.784Z,1.20
2023-02-19T17:47:53.264Z,1.48
2023-02-19T17:50:22.936Z,1.15
2023-02-19T17:52:49.375Z,1.23
2023-02-19T17:55:18.307Z,1.25
2023-02-19T17:57:45.813Z,1.15
2023-02-19T18:00:22.021Z,1.27
2023-02-19T18:02:48.641Z,1.80
2023-02-19T18:05:15.175Z,1.73
2023-02-19T18:07:41.634Z,2.55
2023-02-19T18:10:08.343Z,5.40
2023-02-19T18:12:35.009Z,3.72
2023-02-19T18:15:01.581Z,2.47
2023-02-19T18:17:27.963Z,1.85
2023-02-19T18:19:54.409Z,1.70
2023-02-19T18:22:20.918Z,2.38
2023-02-19T18:24:49.399Z,1.85
2023-02-19T18:27:18.419Z,2.03
2023-02-19T18:29:44.876Z,1.85
2023-02-19T18:32:11.289Z,1.73
2023-02-19T18:34:37.742Z,1.85
2023-02-19T18:37:04.112Z,1.95
2023-02-19T18:39:30.496Z,1.60
2023-02-19T18:41:58.116Z,1.65
2023-02-19T18:44:25.197Z,1.30
2023-02-19T18:46:52.459Z,1.70
2023-02-19T18:49:19.322Z,1.35
2023-02-19T18:51:46.897Z,1.65
2023-02-19T18:54:13.338Z,1.77
2023-02-19T18:56:44.139Z,2.30
2023-02-19T18:59:11.050Z,4.60
2023-02-19T19:01:37.433Z,6.00
2023-02-19T19:04:04.186Z,1.98
2023-02-19T19:06:30.605Z,1.50
2023-02-19T19:08:58.224Z,1.60
2023-02-19T19:11:25.499Z,2.03
2023-02-19T19:13:52.294Z,1.75
2023-02-19T19:16:18.940Z,2.20
2023-02-19T19:18:47.168Z,2.25
2023-02-19T19:21:15.042Z,2.83
2023-02-19T19:23:41.705Z,2.10
2023-02-19T19:26:08.748Z,2.50
2023-02-19T19:28:35.187Z,2.67
2023-02-19T19:31:02.160Z,5.95
2023-02-19T19:33:28.558Z,3.90
2023-02-19T19:35:54.921Z,3.97
2023-02-19T19:38:21.346Z,5.07
2023-02-19T19:40:47.683Z,3.80
2023-02-19T19:43:14.025Z,3.38
2023-02-19T19:45:40.440Z,3.13
2023-02-19T19:48:06.927Z,2.90
2023-02-19T19:50:33.277Z,3.20
2023-02-19T19:52:59.687Z,3.03
2023-02-19T19:55:26.032Z,3.20
2023-02-19T19:57:53.794Z,3.78
2023-02-19T20:00:23.317Z,3.20
2023-02-19T20:02:49.741Z,2.78
2023-02-19T20:05:16.851Z,3.35
2023-02-19T20:07:44.378Z,2.97
2023-02-19T20:10:13.846Z,3.45
2023-02-19T20:12:40.691Z,3.75
2023-02-19T20:15:08.356Z,3.85
2023-02-19T20:17:34.780Z,4.35
2023-02-19T20:20:01.558Z,3.78
2023-02-19T20:22:27.978Z,3.45
2023-02-19T20:24:55.308Z,4.20
2023-02-19T20:27:23.101Z,2.83
2023-02-19T20:29:49.843Z,3.90
2023-02-19T20:32:18.461Z,4.15
2023-02-19T20:34:45.852Z,3.58
2023-02-19T20:37:12.450Z,3.53
2023-02-19T20:39:38.904Z,3.33
2023-02-19T20:42:06.069Z,3.35
2023-02-19T20:44:32.524Z,3.38
2023-02-19T20:46:59.914Z,5.03
2023-02-19T20:49:29.709Z,3.63
2023-02-19T20:52:01.980Z,2.95
2023-02-19T20:54:30.383Z,3.78
2023-02-19T20:56:59.039Z,4.05
2023-02-19T20:59:30.372Z,3.80
2023-02-19T21:01:58.573Z,3.67
2023-02-19T21:04:26.314Z,4.13
2023-02-19T21:06:52.953Z,3.80
2023-02-19T21:09:20.164Z,4.00
2023-02-19T21:11:46.751Z,4.25
2023-02-19T21:14:13.088Z,4.57
2023-02-19T21:16:40.070Z,4.28
2023-02-19T21:19:06.561Z,5.20
2023-02-19T21:21:34.348Z,5.30
2023-02-19T21:24:01.828Z,4.55
2023-02-19T21:26:39.471Z,4.32
2023-02-19T21:29:07.848Z,4.93
2023-02-19T21:31:46.382Z,4.32
2023-02-19T21:34:21.623Z,6.88
2023-02-19T21:36:51.424Z,5.82
2023-02-19T21:39:20.977Z,5.07
2023-02-19T21:41:48.146Z,5.78
2023-02-19T21:44:15.349Z,5.38
2023-02-19T21:46:41.934Z,6.20
2023-02-19T21:49:09.002Z,5.32
2023-02-19T21:51:38.257Z,5.60
2023-02-19T21:54:06.774Z,5.20
2023-02-19T21:56:36.360Z,5.85
2023-02-19T21:59:03.526Z,5.45
2023-02-19T22:01:38.413Z,5.65
2023-02-19T22:04:06.539Z,5.60
2023-02-19T22:06:33.682Z,5.32
2023-02-19T22:09:00.737Z,5.97
2023-02-19T22:11:27.374Z,5.32
2023-02-19T22:13:53.787Z,4.97
2023-02-19T22:16:20.559Z,5.57
2023-02-19T22:18:51.295Z,6.28
2023-02-19T22:21:18.617Z,5.22
2023-02-19T22:23:49.428Z,5.07
2023-02-19T22:26:29.972Z,6.07
2023-02-19T22:28:58.203Z,4.93
2023-02-19T22:31:26.789Z,5.60
2023-02-19T22:33:53.767Z,5.38
2023-02-19T22:36:23.383Z,5.78
2023-02-19T22:38:50.298Z,5.60
2023-02-19T22:41:18.135Z,5.15
2023-02-19T22:43:45.211Z,5.45
2023-02-19T22:46:14.838Z,5.45
2023-02-19T22:48:41.482Z,4.95
2023-02-19T22:51:12.970Z,5.63
2023-02-19T22:53:44.085Z,5.60
2023-02-19T22:56:11.217Z,5.30
2023-02-19T22:58:38.001Z,5.80
2023-02-19T23:01:04.573Z,5.90
2023-02-19T23:03:30.964Z,5.45
2023-02-19T23:05:57.432Z,4.68
2023-02-19T23:08:23.875Z,5.75
2023-02-19T23:10:50.515Z,5.00
2023-02-19T23:13:16.937Z,5.63
2023-02-19T23:15:43.402Z,4.70
2023-02-19T23:18:09.752Z,5.18
2023-02-19T23:20:36.212Z,5.47
2023-02-19T23:23:02.593Z,4.70
2023-02-19T23:25:29.088Z,4.50
2023-02-19T23:27:55.505Z,5.22
2023-02-19T23:30:21.988Z,5.22
2023-02-19T23:32:48.423Z,5.28
2023-02-19T23:35:14.858Z,5.82
2023-02-19T23:37:41.208Z,5.82
2023-02-19T23:40:08.030Z,5.47
2023-02-19T23:42:34.441Z,5.65
2023-02-19T23:45:00.905Z,5.45
2023-02-19T23:47:30.564Z,5.75
2023-02-19T23:49:57.159Z,5.45
2023-02-19T23:52:23.594Z,5.57
2023-02-19T23:54:49.975Z,5.63
2023-02-19T23:57:16.355Z,5.97
2023-02-19T23:59:42.721Z,5.70
